Time;durP1;ratioP1;P1;durP2;ratioP2;P2;SDS_P1;SDS_P2;PMS_P1;PMS_P2;Temp;Humidity;BMP_temperature;BMP_pressure;BME280_temperature;BME280_humidity;BME280_pressure;Samples;Min_cycle;Max_cycle;Signal;HPM_P1;HPM_P2
2023/04/17 00:02:14;;;;;;;36.83;22.92;;;10.60;99.90;;;;;;4976648;28;20086;-91
2023/04/17 00:04:40;;;;;;;43.13;24.83;;;9.90;99.90;;;;;;4976970;28;20039;-92
2023/04/17 00:07:08;;;;;;;33.20;23.13;;;10.50;99.90;;;;;;4975638;28;20031;-92
2023/04/17 00:09:46;;;;;;;41.83;24.38;;;10.80;99.90;;;;;;4976534;28;20439;-92
2023/04/17 00:12:27;;;;;;;41.65;24.08;;;11.00;99.90;;;;;;4976439;28;20026;-92
2023/04/17 00:15:08;;;;;;;35.05;22.60;;;11.20;99.90;;;;;;4975716;28;20038;-93
2023/04/17 00:17:51;;;;;;;37.25;23.55;;;10.40;99.90;;;;;;4976136;28;20521;-92
2023/04/17 00:20:34;;;;;;;36.45;23.17;;;11.50;99.90;;;;;;4975551;28;20392;-92
2023/04/17 00:23:00;;;;;;;38.75;23.23;;;11.20;99.90;;;;;;4976003;28;20418;-92
2023/04/17 00:25:25;;;;;;;38.70;23.98;;;10.40;99.90;;;;;;4988524;28;20023;-92
2023/04/17 00:28:00;;;;;;;35.97;24.13;;;11.50;99.90;;;;;;4975780;28;20452;-91
2023/04/17 00:30:34;;;;;;;43.33;24.15;;;10.90;99.90;;;;;;4975859;28;20027;-92
2023/04/17 00:32:59;;;;;;;40.67;24.13;;;10.30;99.90;;;;;;4975643;28;20478;-91
2023/04/17 00:35:25;;;;;;;42.15;22.60;;;9.90;99.90;;;;;;4975640;28;20034;-92
2023/04/17 00:37:53;;;;;;;38.30;22.63;;;11.60;99.90;;;;;;4975957;28;20015;-91
2023/04/17 00:40:19;;;;;;;36.42;22.15;;;11.00;99.90;;;;;;4975769;28;20115;-92
2023/04/17 00:42:47;;;;;;;35.33;24.08;;;10.30;99.90;;;;;;4974844;28;20131;-92
2023/04/17 00:45:12;;;;;;;41.40;23.67;;;10.30;99.90;;;;;;4975449;28;20471;-91
2023/04/17 00:47:38;;;;;;;42.88;25.85;;;10.80;99.90;;;;;;4975667;28;20038;-93
2023/04/17 00:50:04;;;;;;;40.33;26.38;;;10.30;99.90;;;;;;4975454;28;20101;-92
2023/04/17 00:52:30;;;;;;;44.53;25.15;;;10.20;99.90;;;;;;4975516;28;20054;-92
2023/04/17 00:54:57;;;;;;;48.00;25.70;;;9.90;99.90;;;;;;4975821;28;20459;-91
2023/04/17 00:57:23;;;;;;;46.80;26.35;;;9.90;99.90;;;;;;4974848;28;20023;-91
2023/04/17 00:59:52;;;;;;;45.83;25.90;;;9.70;99.90;;;;;;4975555;28;20031;-92
2023/04/17 01:02:17;;;;;;;44.05;24.15;;;9.80;99.90;;;;;;4972596;28;20083;-92
2023/04/17 01:04:43;;;;;;;38.33;24.70;;;10.60;99.90;;;;;;4976087;28;20454;-92
2023/04/17 01:07:09;;;;;;;42.28;23.35;;;10.00;99.90;;;;;;4975270;28;20113;-92
2023/04/17 01:09:35;;;;;;;35.55;22.95;;;9.80;99.90;;;;;;4977493;28;20018;-92
2023/04/17 01:12:32;;;;;;;43.28;24.13;;;9.90;99.90;;;;;;4975349;28;20027;-92
2023/04/17 01:15:01;;;;;;;40.05;22.38;;;9.10;99.90;;;;;;4975630;28;20029;-90
2023/04/17 01:17:27;;;;;;;40.00;24.30;;;10.80;99.90;;;;;;4974585;28;20051;-93
2023/04/17 01:19:58;;;;;;;42.13;23.65;;;11.20;99.90;;;;;;4975725;28;20055;-92
2023/04/17 01:22:27;;;;;;;38.40;23.23;;;11.10;99.90;;;;;;4974340;28;20579;-92
2023/04/17 01:25:08;;;;;;;36.83;22.40;;;10.20;99.90;;;;;;4974156;28;20034;-91
2023/04/17 01:27:43;;;;;;;;;;;10.90;99.90;;;;;;4975764;28;20085;-92
2023/04/17 01:30:09;;;;;;;37.08;20.92;;;9.50;99.90;;;;;;4974843;28;20090;-91
2023/04/17 01:32:34;;;;;;;31.30;21.55;;;10.10;99.90;;;;;;4976058;28;20130;-90
2023/04/17 01:35:00;;;;;;;34.60;20.67;;;9.80;99.90;;;;;;4973919;28;20035;-91
2023/04/17 01:37:26;;;;;;;39.20;23.20;;;9.80;99.90;;;;;;4964454;28;20042;-91
2023/04/17 01:39:52;;;;;;;37.72;22.27;;;10.80;99.90;;;;;;4974603;28;20037;-90
2023/04/17 01:42:30;;;;;;;32.90;20.85;;;9.90;99.90;;;;;;4974675;28;20409;-90
2023/04/17 01:45:07;;;;;;;34.78;22.52;;;9.60;99.90;;;;;;4974097;28;20382;-93
2023/04/17 01:47:44;;;;;;;36.65;21.70;;;9.60;99.90;;;;;;4974866;28;20089;-91
2023/04/17 01:50:11;;;;;;;36.75;19.95;;;10.10;99.90;;;;;;4974506;28;20113;-91
2023/04/17 01:52:38;;;;;;;37.17;20.27;;;9.70;99.90;;;;;;4973961;28;20026;-91
2023/04/17 01:55:04;;;;;;;35.78;20.17;;;10.80;99.90;;;;;;4974468;28;20035;-92
2023/04/17 01:57:32;;;;;;;36.13;21.52;;;9.80;99.90;;;;;;4974999;28;20036;-91
2023/04/17 01:59:59;;;;;;;28.63;20.13;;;10.50;99.90;;;;;;4973966;28;20073;-90
2023/04/17 02:02:25;;;;;;;30.02;19.60;;;9.80;99.90;;;;;;4974229;28;20035;-91
2023/04/17 02:04:50;;;;;;;33.50;20.45;;;9.80;99.90;;;;;;4974476;28;20486;-91
2023/04/17 02:07:16;;;;;;;37.45;22.50;;;9.60;99.90;;;;;;4974197;28;20030;-91
2023/04/17 02:09:42;;;;;;;35.05;22.30;;;9.70;99.90;;;;;;4974577;28;20023;-92
2023/04/17 02:12:07;;;;;;;31.05;20.77;;;9.80;99.90;;;;;;4974439;28;20470;-92
2023/04/17 02:14:33;;;;;;;35.13;21.75;;;9.90;99.90;;;;;;4973540;28;20027;-90
2023/04/17 02:16:58;;;;;;;29.73;19.80;;;10.20;99.90;;;;;;4974390;28;20034;-91
2023/04/17 02:19:24;;;;;;;29.05;19.60;;;10.50;99.90;;;;;;4974352;28;20029;-91
2023/04/17 02:21:49;;;;;;;38.00;21.52;;;10.00;99.90;;;;;;4974102;28;20043;-91
2023/04/17 02:24:15;;;;;;;33.13;20.35;;;10.00;99.90;;;;;;4973981;28;20502;-93
2023/04/17 02:26:41;;;;;;;33.13;22.77;;;9.80;99.90;;;;;;4973420;28;20471;-90
2023/04/17 02:29:06;;;;;;;33.58;21.67;;;10.00;99.90;;;;;;4974061;28;20027;-90
2023/04/17 02:31:32;;;;;;;41.33;20.63;;;9.80;99.90;;;;;;4974878;28;20054;-91
2023/04/17 02:33:58;;;;;;;28.30;20.45;;;10.30;99.90;;;;;;4975862;28;20027;-91
2023/04/17 02:36:23;;;;;;;33.95;20.67;;;9.90;99.90;;;;;;4974131;28;20027;-93
2023/04/17 02:38:49;;;;;;;32.15;20.73;;;9.90;99.90;;;;;;4974426;28;20049;-91
2023/04/17 02:41:14;;;;;;;35.78;21.27;;;10.00;99.90;;;;;;4973768;28;20114;-91
2023/04/17 02:43:40;;;;;;;33.95;20.98;;;10.00;99.90;;;;;;4974116;28;20463;-90
2023/04/17 02:46:05;;;;;;;33.03;21.58;;;10.10;99.90;;;;;;4975438;28;20034;-91
2023/04/17 02:48:31;;;;;;;32.95;21.42;;;10.10;99.90;;;;;;4977323;28;20038;-91
2023/04/17 02:50:57;;;;;;;35.75;22.85;;;10.80;99.90;;;;;;4978154;28;20078;-90
2023/04/17 02:53:22;;;;;;;40.42;22.17;;;11.00;99.90;;;;;;4977911;28;20027;-90
2023/04/17 02:55:48;;;;;;;39.40;22.45;;;10.20;99.90;;;;;;4977376;28;20030;-92
2023/04/17 02:58:13;;;;;;;35.78;22.10;;;10.90;99.90;;;;;;4977891;28;20030;-91
2023/04/17 03:00:39;;;;;;;36.90;22.38;;;9.90;99.90;;;;;;4977784;28;20046;-90
2023/04/17 03:03:06;;;;;;;33.85;20.55;;;9.70;99.90;;;;;;4977092;28;20077;-91
2023/04/17 03:05:32;;;;;;;36.83;22.98;;;10.00;99.90;;;;;;4977776;28;20467;-92
2023/04/17 03:07:58;;;;;;;30.10;20.67;;;9.60;99.90;;;;;;4977748;28;20033;-92
2023/04/17 03:10:24;;;;;;;27.83;19.77;;;9.60;99.90;;;;;;4977031;28;20026;-93
2023/04/17 03:12:49;;;;;;;32.80;20.63;;;9.60;99.90;;;;;;4978050;28;20022;-93
2023/04/17 03:15:15;;;;;;;30.35;21.27;;;9.60;99.90;;;;;;4977738;28;20463;-93
2023/04/17 03:17:40;;;;;;;30.55;20.55;;;10.70;99.90;;;;;;4976708;28;20054;-93
2023/04/17 03:20:07;;;;;;;33.33;19.73;;;10.50;99.90;;;;;;4977535;28;20030;-92
2023/04/17 03:22:33;;;;;;;29.45;18.98;;;9.70;99.90;;;;;;4977450;28;20108;-93
2023/04/17 03:24:59;;;;;;;28.05;18.58;;;9.80;99.90;;;;;;4976904;28;20106;-92
2023/04/17 03:27:25;;;;;;;36.20;18.83;;;9.80;99.90;;;;;;4977290;28;20505;-92
2023/04/17 03:29:50;;;;;;;29.95;18.67;;;9.70;99.90;;;;;;4977374;28;20031;-92
2023/04/17 03:32:17;;;;;;;31.85;19.88;;;9.70;99.90;;;;;;4977122;28;20538;-93
2023/04/17 03:34:43;;;;;;;30.55;19.60;;;10.80;99.90;;;;;;4979800;28;20046;-94
2023/04/17 03:37:09;;;;;;;25.52;18.77;;;9.80;99.90;;;;;;4978392;28;20470;-91
2023/04/17 03:39:35;;;;;;;32.92;19.75;;;9.80;99.90;;;;;;4976910;28;20027;-91
2023/04/17 03:42:00;;;;;;;29.13;19.80;;;10.20;99.90;;;;;;4976130;28;20109;-92
2023/04/17 03:44:46;;;;;;;32.25;18.17;;;10.80;99.90;;;;;;4976088;28;20117;-91
2023/04/17 03:47:12;;;;;;;29.88;18.30;;;10.50;99.90;;;;;;4976603;28;20038;-91
2023/04/17 03:49:37;;;;;;;27.38;19.05;;;11.20;99.90;;;;;;4977004;28;20033;-91
2023/04/17 03:52:03;;;;;;;28.83;18.88;;;10.20;99.90;;;;;;4976290;28;20422;-93
2023/04/17 03:54:29;;;;;;;30.33;19.25;;;9.70;99.90;;;;;;4977054;28;20030;-91
2023/04/17 03:56:54;;;;;;;28.67;19.90;;;10.90;99.90;;;;;;4976295;28;20033;-92
2023/04/17 03:59:20;;;;;;;30.10;19.70;;;10.00;99.90;;;;;;4975602;28;20085;-92
2023/04/17 04:01:46;;;;;;;29.63;19.17;;;10.50;99.90;;;;;;4976545;28;20379;-93
2023/04/17 04:04:11;;;;;;;24.73;17.95;;;10.80;99.90;;;;;;4976838;28;20106;-90
2023/04/17 04:06:38;;;;;;;27.55;18.50;;;10.70;99.90;;;;;;4976306;28;20444;-91
2023/04/17 04:09:13;;;;;;;29.60;18.55;;;10.70;99.90;;;;;;4976361;28;20022;-93
2023/04/17 04:11:53;;;;;;;32.33;19.40;;;11.10;99.90;;;;;;4976258;28;20050;-93
2023/04/17 04:14:34;;;;;;;29.70;19.02;;;10.20;99.90;;;;;;4975589;28;20026;-92
2023/04/17 04:17:15;;;;;;;29.00;20.08;;;10.10;99.90;;;;;;4976192;28;20057;-90
2023/04/17 04:19:42;;;;;;;30.95;20.70;;;11.00;99.90;;;;;;4976193;28;20046;-92
2023/04/17 04:22:09;;;;;;;35.70;20.42;;;9.90;99.90;;;;;;4976153;28;20031;-92
2023/04/17 04:24:39;;;;;;;30.10;20.45;;;9.90;99.90;;;;;;4981513;28;20119;-90
2023/04/17 04:27:08;;;;;;;30.77;21.10;;;10.10;99.90;;;;;;4985736;28;20521;-92
2023/04/17 04:29:44;;;;;;;31.92;19.70;;;10.50;99.90;;;;;;4975858;28;20039;-91
2023/04/17 04:32:26;;;;;;;31.35;22.48;;;9.50;99.90;;;;;;4975811;28;20027;-92
2023/04/17 04:35:00;;;;;;;32.67;20.48;;;10.00;99.90;;;;;;4975553;28;20034;-91
2023/04/17 04:37:29;;;;;;;30.58;20.83;;;9.60;99.90;;;;;;4976109;28;20470;-90
2023/04/17 04:40:00;;;;;;;32.20;21.92;;;10.20;99.90;;;;;;4976056;28;20038;-91
2023/04/17 04:42:29;;;;;;;33.05;21.95;;;9.50;99.90;;;;;;4975280;28;20050;-91
2023/04/17 04:44:57;;;;;;;35.33;21.95;;;9.50;99.90;;;;;;4975647;28;20027;-91
2023/04/17 04:47:23;;;;;;;32.45;21.17;;;10.20;99.90;;;;;;4975089;28;20039;-91
2023/04/17 04:49:49;;;;;;;34.40;22.35;;;9.40;99.90;;;;;;4975661;28;20037;-92
2023/04/17 04:52:15;;;;;;;30.23;21.10;;;10.50;99.90;;;;;;4978059;28;20030;-90
2023/04/17 04:54:40;;;;;;;26.85;20.38;;;9.30;99.90;;;;;;4975273;28;20023;-91
2023/04/17 04:57:06;;;;;;;36.20;21.50;;;9.70;99.90;;;;;;4993969;28;20033;-92
2023/04/17 04:59:35;;;;;;;35.40;21.75;;;10.70;99.90;;;;;;4975131;28;20019;-90
2023/04/17 05:02:15;;;;;;;31.35;22.25;;;9.90;99.90;;;;;;4975168;28;20035;-90
2023/04/17 05:04:53;;;;;;;33.22;21.45;;;10.60;99.90;;;;;;4975037;28;20475;-92
2023/04/17 05:07:37;;;;;;;34.15;21.48;;;10.70;99.90;;;;;;4974919;28;20027;-91
2023/04/17 05:10:04;;;;;;;35.50;23.65;;;10.70;99.90;;;;;;4974694;28;20063;-90
2023/04/17 05:12:30;;;;;;;33.60;23.02;;;9.80;99.90;;;;;;4975215;28;20102;-90
2023/04/17 05:15:09;;;;;;;39.38;23.77;;;10.50;99.90;;;;;;4974983;28;20022;-92
2023/04/17 05:17:52;;;;;;;39.20;23.42;;;9.80;99.90;;;;;;4974420;28;20031;-90
2023/04/17 05:20:18;;;;;;;35.05;23.48;;;10.60;99.90;;;;;;4974646;28;20023;-90
2023/04/17 05:22:49;;;;;;;37.70;23.52;;;9.70;99.90;;;;;;4974842;28;20057;-91
2023/04/17 05:25:18;;;;;;;36.45;24.38;;;10.60;99.90;;;;;;4975073;28;20463;-91
2023/04/17 05:27:50;;;;;;;38.70;24.75;;;11.10;99.90;;;;;;4974947;28;20415;-91
2023/04/17 05:30:16;;;;;;;32.88;23.70;;;10.70;99.90;;;;;;4974082;28;20019;-91
2023/04/17 05:32:44;;;;;;;39.63;24.65;;;9.80;99.90;;;;;;4973908;28;20377;-91
2023/04/17 05:35:09;;;;;;;35.00;24.70;;;9.00;99.90;;;;;;4983061;28;20025;-93
2023/04/17 05:37:35;;;;;;;36.97;24.45;;;9.90;99.90;;;;;;4974576;28;20023;-91
2023/04/17 05:40:05;;;;;;;33.60;23.95;;;9.90;99.90;;;;;;4973489;28;20022;-91
2023/04/17 05:42:32;;;;;;;36.97;23.92;;;9.90;99.90;;;;;;4982936;28;20055;-91
2023/04/17 05:45:01;;;;;;;34.05;24.33;;;10.60;99.90;;;;;;4985515;28;20027;-90
2023/04/17 05:47:42;;;;;;;37.67;23.45;;;9.40;99.90;;;;;;4980986;28;20027;-91
2023/04/17 05:50:16;;;;;;;38.38;24.42;;;9.80;99.90;;;;;;4981032;28;20080;-91
2023/04/17 05:52:55;;;;;;;34.83;24.35;;;10.60;99.90;;;;;;4982107;28;20023;-91
2023/04/17 05:55:21;;;;;;;38.05;24.65;;;9.90;99.90;;;;;;4985583;28;20045;-90
2023/04/17 05:57:46;;;;;;;35.00;22.83;;;10.80;99.90;;;;;;4973938;28;20019;-90
2023/04/17 06:00:12;;;;;;;33.17;24.02;;;10.40;99.90;;;;;;4979412;28;20029;-92
2023/04/17 06:02:41;;;;;;;39.55;23.70;;;10.10;99.90;;;;;;4993864;28;20038;-91
2023/04/17 06:05:17;;;;;;;34.40;23.38;;;10.00;99.90;;;;;;4993792;28;20026;-91
2023/04/17 06:07:43;;;;;;;41.90;24.30;;;9.50;99.90;;;;;;4993912;28;20026;-91
2023/04/17 06:10:09;;;;;;;33.28;23.80;;;10.70;99.90;;;;;;4993756;28;20019;-91
2023/04/17 06:12:41;;;;;;;34.10;22.83;;;11.20;99.90;;;;;;4992796;28;20042;-90
2023/04/17 06:15:16;;;;;;;30.95;21.08;;;11.40;99.90;;;;;;4993787;28;20428;-91
2023/04/17 06:17:57;;;;;;;32.35;22.23;;;10.10;99.90;;;;;;4988055;28;20038;-91
2023/04/17 06:20:28;;;;;;;29.35;21.33;;;11.30;99.90;;;;;;4993200;28;20046;-90
2023/04/17 06:23:06;;;;;;;30.50;21.63;;;10.00;99.90;;;;;;4976918;28;20043;-92
2023/04/17 06:25:44;;;;;;;32.05;21.55;;;10.50;99.90;;;;;;4977680;28;20461;-91
2023/04/17 06:28:18;;;;;;;29.35;21.40;;;9.80;99.90;;;;;;4976922;28;20034;-92
2023/04/17 06:30:44;;;;;;;33.65;21.98;;;10.70;99.90;;;;;;4977426;28;20022;-93
2023/04/17 06:33:09;;;;;;;57.33;23.35;;;10.40;99.90;;;;;;4980764;28;20050;-91
2023/04/17 06:35:50;;;;;;;33.45;22.70;;;11.10;99.90;;;;;;4983184;28;20602;-93
2023/04/17 06:38:15;;;;;;;;;;;11.20;99.90;;;;;;4962589;29;20031;-93
2023/04/17 06:40:56;;;;;;;45.78;24.50;;;10.10;99.90;;;;;;4971288;28;19976;-92
2023/04/17 06:43:31;;;;;;;103.18;29.63;;;11.30;99.90;;;;;;4979686;28;20062;-94
2023/04/17 06:45:57;;;;;;;60.95;25.35;;;10.80;99.90;;;;;;4977583;28;20387;-93
2023/04/17 06:48:34;;;;;;;35.72;23.58;;;10.70;99.90;;;;;;4983159;28;20025;-93
2023/04/17 06:51:03;;;;;;;34.30;22.20;;;10.30;99.90;;;;;;4996414;28;20053;-92
2023/04/17 06:53:58;;;;;;;39.97;23.75;;;10.10;99.90;;;;;;4996230;28;20513;-91
2023/04/17 06:56:32;;;;;;;34.83;23.13;;;9.60;99.90;;;;;;4996426;28;20034;-92
2023/04/17 06:59:21;;;;;;;38.15;22.98;;;10.70;99.90;;;;;;4998079;28;20029;-93
2023/04/17 07:01:47;;;;;;;33.63;21.73;;;11.00;99.90;;;;;;5047302;22;20050;-92
2023/04/17 07:04:12;;;;;;;34.05;22.40;;;10.80;99.90;;;;;;4976865;28;20037;-91
2023/04/17 07:06:38;;;;;;;37.00;23.20;;;9.90;99.90;;;;;;4976067;28;20029;-90
2023/04/17 07:09:04;;;;;;;39.58;24.25;;;9.80;99.90;;;;;;4977339;28;20378;-92
2023/04/17 07:11:30;;;;;;;41.72;23.33;;;9.80;99.90;;;;;;4975631;28;20051;-92
2023/04/17 07:13:56;;;;;;;42.67;25.17;;;9.90;99.90;;;;;;4977542;28;20065;-92
2023/04/17 07:24:58;;;;;;;33.33;22.38;;;10.30;99.90;;;;;;5359202;22;20062;-92
2023/04/17 07:27:41;;;;;;;36.45;22.83;;;10.40;99.90;;;;;;5012685;28;20032;-90
2023/04/17 07:30:24;;;;;;;33.63;22.42;;;11.50;99.90;;;;;;5012743;28;20022;-91
2023/04/17 07:33:08;;;;;;;35.15;24.13;;;11.20;99.90;;;;;;5012513;28;20033;-90
2023/04/17 07:35:45;;;;;;;36.83;23.02;;;10.30;99.90;;;;;;5014492;28;20026;-91
2023/04/17 07:38:33;;;;;;;38.47;23.48;;;11.30;99.90;;;;;;5021474;28;20048;-91
2023/04/17 07:41:21;;;;;;;35.97;24.60;;;10.20;99.90;;;;;;5015255;28;20030;-90
2023/04/17 07:44:02;;;;;;;39.88;24.98;;;9.70;99.90;;;;;;5013344;28;20381;-90
2023/04/17 07:46:46;;;;;;;34.60;23.83;;;9.30;99.90;;;;;;5013881;28;20072;-91
2023/04/17 07:49:11;;;;;;;40.42;24.30;;;10.10;99.90;;;;;;5014135;28;20044;-91
2023/04/17 07:51:43;;;;;;;38.78;24.42;;;10.80;99.90;;;;;;5013830;28;20022;-90
2023/04/17 07:54:27;;;;;;;40.50;23.90;;;10.40;99.90;;;;;;5013806;28;20021;-91
2023/04/17 07:57:10;;;;;;;40.88;24.63;;;11.00;99.90;;;;;;5014861;28;20030;-91
2023/04/17 07:59:54;;;;;;;39.28;24.15;;;9.70;99.90;;;;;;5015657;28;20044;-92
2023/04/17 08:02:32;;;;;;;38.85;23.80;;;10.40;99.90;;;;;;5016249;28;20049;-92
2023/04/17 08:05:07;;;;;;;36.47;23.33;;;10.00;99.90;;;;;;5014962;28;20045;-91
2023/04/17 08:07:45;;;;;;;38.22;25.00;;;10.00;99.90;;;;;;5015404;28;20038;-91
2023/04/17 08:10:32;;;;;;;39.30;25.13;;;11.10;99.90;;;;;;5015823;28;20537;-90
2023/04/17 08:13:19;;;;;;;35.17;23.83;;;10.70;99.90;;;;;;5015184;28;20025;-91
2023/04/17 08:16:03;;;;;;;40.20;25.23;;;10.20;99.90;;;;;;5015086;28;20030;-91
2023/04/17 08:18:48;;;;;;;35.58;23.58;;;10.20;99.90;;;;;;5014587;28;20022;-91
2023/04/17 08:21:32;;;;;;;41.47;25.63;;;11.00;99.90;;;;;;5015145;28;20037;-92
2023/04/17 08:24:07;;;;;;;38.13;26.13;;;11.40;99.90;;;;;;4999329;28;20046;-91
2023/04/17 08:26:32;;;;;;;45.72;27.30;;;10.00;99.90;;;;;;4995449;28;20032;-92
2023/04/17 08:32:56;;;;;;;39.47;24.38;;;9.50;99.90;;;;;;4940698;28;20034;-92
2023/04/17 08:36:20;;;;;;;42.47;25.80;;;10.20;99.90;;;;;;4959784;28;20031;-94
2023/04/17 08:39:37;;;;;;;39.83;26.88;;;10.30;99.90;;;;;;4977153;28;20116;-93
2023/04/17 08:42:50;;;;;;;40.65;25.50;;;10.10;99.90;;;;;;4976259;28;20035;-92
2023/04/17 08:45:45;;;;;;;43.08;26.65;;;10.20;99.90;;;;;;4980160;28;20089;-94
2023/04/17 08:54:40;;;;;;;;;;;;;;;;;;;;;
2023/04/17 09:05:16;;;;;;;74.80;28.58;;;10.40;99.90;;;;;;4922033;29;20138;-94
2023/04/17 09:07:52;;;;;;;45.33;25.90;;;10.00;99.90;;;;;;4937804;29;20075;-93
2023/04/17 09:11:15;;;;;;;;;;;;;;;;;;;;;
2023/04/17 09:18:10;;;;;;;42.58;27.00;;;10.50;99.90;;;;;;4883645;29;20409;-93
2023/04/17 09:24:55;;;;;;;;;;;;;;;;;;;;;
2023/04/17 10:00:57;;;;;;;43.58;27.42;;;10.50;99.90;;;;;;4959030;28;20097;-92
2023/04/17 10:03:47;;;;;;;50.30;27.35;;;11.30;99.90;;;;;;4972710;28;20394;-92
2023/04/17 10:06:45;;;;;;;;;;;;;;;;;;;;;
2023/04/17 10:09:16;;;;;;;36.10;23.67;;;11.90;99.90;;;;;;4929472;28;20121;-93
2023/04/17 10:11:57;;;;;;;37.83;23.95;;;11.80;99.90;;;;;;4973350;28;20035;-91
2023/04/17 10:18:24;;;;;;;39.10;24.30;;;11.30;99.90;;;;;;4931421;29;20560;-94
2023/04/17 10:48:36;;;;;;;31.63;21.50;;;11.90;99.90;;;;;;4976915;28;20046;-93
2023/04/17 10:51:37;;;;;;;;;;;;;;;;;;;;;
2023/04/17 10:54:09;;;;;;;31.15;21.65;;;12.00;99.90;;;;;;4945372;29;20107;-94
2023/04/17 10:57:06;;;;;;;;;;;;;;;;;;;;;
2023/04/17 11:03:42;;;;;;;32.10;21.55;;;12.10;99.90;;;;;;4942969;28;20109;-94
2023/04/17 11:06:19;;;;;;;31.63;22.45;;;12.10;99.90;;;;;;4972670;28;20051;-94
2023/04/17 11:09:07;;;;;;;31.30;22.00;;;13.00;99.90;;;;;;4981622;28;20027;-93
2023/04/17 11:11:40;;;;;;;29.23;21.85;;;12.20;99.90;;;;;;4981355;28;20023;-95
2023/04/17 11:14:22;;;;;;;31.20;21.00;;;13.30;99.90;;;;;;4984854;28;20027;-94
2023/04/17 11:17:00;;;;;;;28.80;21.45;;;13.60;99.90;;;;;;5000325;22;20150;-93
2023/04/17 11:19:44;;;;;;;32.05;21.75;;;13.00;99.90;;;;;;4986790;28;20172;-94
2023/04/17 11:22:34;;;;;;;158.63;33.67;;;13.00;99.90;;;;;;4987421;28;20030;-93
2023/04/17 11:25:20;;;;;;;;;;;12.40;99.90;;;;;;4988110;28;20027;-94
2023/04/17 11:27:55;;;;;;;288.67;44.47;;;12.50;99.90;;;;;;4969261;28;19956;-95
2023/04/17 11:31:08;;;;;;;51.15;23.35;;;13.10;99.90;;;;;;4984645;28;20015;-92
2023/04/17 11:33:35;;;;;;;34.05;21.98;;;12.60;99.90;;;;;;4925422;28;20043;-93
2023/04/17 11:36:51;;;;;;;30.63;21.65;;;13.90;99.90;;;;;;4981160;28;20136;-94
2023/04/17 11:39:41;;;;;;;28.67;19.88;;;12.50;99.90;;;;;;5007898;28;20445;-93
2023/04/17 11:45:23;;;;;;;31.35;22.85;;;12.50;99.90;;;;;;4922453;29;20549;-93
2023/04/17 11:51:03;;;;;;;33.83;20.83;;;11.70;99.90;;;;;;4922411;29;20127;-92
2023/04/17 11:53:34;;;;;;;34.25;22.13;;;13.50;99.90;;;;;;4919189;29;20404;-91
2023/04/17 12:25:19;;;;;;;38.30;22.15;;;18.30;99.90;;;;;;5120384;27;20323;-90
2023/04/17 12:27:45;;;;;;;23.85;20.58;;;16.00;99.90;;;;;;5119859;22;20117;-90
2023/04/17 12:30:11;;;;;;;25.95;21.30;;;14.80;99.90;;;;;;5052408;28;20056;-90
2023/04/17 12:32:38;;;;;;;27.77;22.35;;;14.60;99.90;;;;;;5050950;28;20035;-89
2023/04/17 12:35:04;;;;;;;30.67;22.60;;;14.70;99.90;;;;;;5055856;28;20018;-87
2023/04/17 12:37:30;;;;;;;25.08;21.48;;;14.60;99.90;;;;;;5056415;28;20033;-88
2023/04/17 12:39:55;;;;;;;28.85;23.48;;;14.40;99.90;;;;;;5072990;28;20357;-87
2023/04/17 12:42:41;;;;;;;24.83;21.90;;;14.60;99.90;;;;;;5057734;28;20021;-88
2023/04/17 12:45:10;;;;;;;27.38;22.17;;;14.50;99.90;;;;;;5045693;28;20029;-91
2023/04/17 12:47:36;;;;;;;32.63;22.63;;;15.20;99.90;;;;;;5048515;28;20032;-87
2023/04/17 12:50:02;;;;;;;28.00;22.13;;;15.00;99.90;;;;;;5051608;28;20033;-87
2023/04/17 12:52:28;;;;;;;30.90;21.77;;;15.60;99.90;;;;;;5050697;28;20025;-86
2023/04/17 12:54:58;;;;;;;47.83;24.42;;;15.00;99.90;;;;;;5047955;28;20033;-87
2023/04/17 12:57:26;;;;;;;33.88;22.63;;;15.80;99.90;;;;;;5047871;28;20481;-90
2023/04/17 12:59:52;;;;;;;51.97;22.88;;;15.10;99.90;;;;;;5047677;28;20207;-87
2023/04/17 13:02:19;;;;;;;31.27;20.13;;;15.20;99.90;;;;;;5049232;28;20120;-89
2023/04/17 13:04:48;;;;;;;25.55;22.50;;;15.20;99.90;;;;;;5049673;28;20141;-92
2023/04/17 13:07:14;;;;;;;32.53;24.80;;;15.10;99.90;;;;;;5048781;28;20030;-92
2023/04/17 13:09:40;;;;;;;32.65;25.02;;;15.00;99.90;;;;;;5046001;28;20388;-92
2023/04/17 13:14:50;;;;;;;30.17;24.58;;;15.10;99.90;;;;;;5042612;28;20633;-89
2023/04/17 13:17:16;;;;;;;29.92;23.48;;;15.60;99.90;;;;;;5051443;28;20161;-91
2023/04/17 13:19:57;;;;;;;32.42;23.98;;;16.40;99.90;;;;;;5050500;28;20025;-90
2023/04/17 13:22:32;;;;;;;30.42;22.80;;;16.00;99.90;;;;;;5047281;28;20159;-91
2023/04/17 13:24:59;;;;;;;30.70;24.92;;;15.80;99.90;;;;;;5050829;28;20021;-91
2023/04/17 13:27:42;;;;;;;26.48;23.15;;;16.50;99.90;;;;;;5036361;28;20061;-94
2023/04/17 13:30:09;;;;;;;26.02;23.30;;;15.60;99.90;;;;;;5025629;28;20026;-92
2023/04/17 13:32:34;;;;;;;30.23;25.30;;;15.50;99.90;;;;;;5088320;22;20076;-93
2023/04/17 13:35:18;;;;;;;35.10;28.10;;;15.50;99.90;;;;;;5070728;28;20518;-93
2023/04/17 13:37:44;;;;;;;34.92;24.05;;;15.50;99.90;;;;;;5064411;28;20017;-93
2023/04/17 13:42:45;;;;;;;33.50;24.27;;;15.30;99.90;;;;;;5084251;22;20610;-92
2023/04/17 13:45:22;;;;;;;31.20;24.45;;;15.90;99.90;;;;;;5051571;28;20021;-93
2023/04/17 13:47:50;;;;;;;30.90;25.20;;;15.90;99.90;;;;;;5056499;28;20111;-91
2023/04/17 13:50:16;;;;;;;25.25;22.52;;;15.60;99.90;;;;;;5077090;28;20044;-92
2023/04/17 13:52:56;;;;;;;28.73;24.02;;;15.80;99.90;;;;;;5068750;28;20025;-92
2023/04/17 13:55:22;;;;;;;29.27;24.27;;;16.70;99.90;;;;;;5056544;28;20060;-92
2023/04/17 13:58:03;;;;;;;28.15;23.13;;;16.70;99.90;;;;;;5057446;28;20017;-95
2023/04/17 14:00:38;;;;;;;34.40;24.65;;;18.00;99.90;;;;;;5104446;22;20068;-95
2023/04/17 14:03:29;;;;;;;26.70;22.85;;;17.00;99.90;;;;;;5078693;28;20036;-94
2023/04/17 14:06:20;;;;;;;25.77;23.13;;;16.70;99.90;;;;;;5092206;28;20023;-94
2023/04/17 14:08:45;;;;;;;31.17;21.52;;;17.30;99.90;;;;;;5002502;28;20047;-93
2023/04/17 14:11:26;;;;;;;24.65;21.17;;;18.20;99.90;;;;;;4991597;28;20042;-95
2023/04/17 14:13:52;;;;;;;23.85;21.30;;;18.90;99.90;;;;;;4991397;28;20115;-94
2023/04/17 14:16:31;;;;;;;24.88;22.05;;;20.10;99.90;;;;;;4988235;28;20592;-95
2023/04/17 14:19:02;;;;;;;24.88;22.38;;;21.50;99.90;;;;;;5074218;28;20465;-94
2023/04/17 14:21:56;;;;;;;25.80;21.60;;;20.20;99.90;;;;;;5090003;28;20040;-95
2023/04/17 14:24:49;;;;;;;29.30;21.02;;;20.60;99.90;;;;;;5061771;23;20064;-94
2023/04/17 14:27:39;;;;;;;24.63;21.85;;;21.60;99.90;;;;;;5079219;28;20045;-95
2023/04/17 14:30:06;;;;;;;23.75;21.35;;;21.80;99.90;;;;;;5034944;28;20043;-92
2023/04/17 14:32:57;;;;;;;24.52;22.00;;;21.30;99.90;;;;;;5165513;22;20068;-92
2023/04/17 14:35:44;;;;;;;;;;;20.50;99.90;;;;;;5094547;28;20036;-92
2023/04/17 14:38:10;;;;;;;23.17;20.77;;;19.80;99.90;;;;;;5090939;28;19900;-91
2023/04/17 14:40:37;;;;;;;25.52;22.88;;;19.80;99.90;;;;;;5083809;28;20027;-93
2023/04/17 14:43:03;;;;;;;29.60;22.90;;;19.00;99.90;;;;;;5077981;28;20020;-94
2023/04/17 14:45:44;;;;;;;24.20;21.40;;;16.30;99.90;;;;;;5080301;28;20013;-94
2023/04/17 14:48:29;;;;;;;25.63;22.65;;;18.00;99.90;;;;;;5077431;28;20059;-93
2023/04/17 14:55:02;;;;;;;23.50;20.95;;;21.80;99.90;;;;;;5264190;22;20400;-94
2023/04/17 14:57:46;;;;;;;23.13;20.88;;;22.60;99.40;;;;;;5140475;22;20075;-93
2023/04/17 15:00:12;;;;;;;22.95;20.40;;;24.40;97.40;;;;;;5113923;28;20035;-91
2023/04/17 15:02:39;;;;;;;21.02;19.00;;;23.80;96.60;;;;;;5115731;28;20110;-93
2023/04/17 15:05:18;;;;;;;21.50;19.40;;;25.10;96.00;;;;;;5102807;22;20427;-92
2023/04/17 15:07:45;;;;;;;21.45;19.33;;;25.60;95.00;;;;;;5063863;28;20029;-89
2023/04/17 15:10:20;;;;;;;22.52;20.17;;;26.00;94.40;;;;;;5073197;28;20072;-93
2023/04/17 15:12:47;;;;;;;21.02;18.90;;;25.30;94.30;;;;;;5063881;28;20083;-92
2023/04/17 15:15:33;;;;;;;21.70;19.60;;;24.10;94.60;;;;;;5159979;22;20086;-92
2023/04/17 15:17:59;;;;;;;;;;;24.00;94.60;;;;;;5078696;28;20081;-84
2023/04/17 15:33:27;;;;;;;13.25;11.25;;;23.10;98.90;;;;;;5069308;28;20383;-64
2023/04/17 15:35:54;;;;;;;11.32;10.10;;;22.80;99.40;;;;;;5078396;28;20020;-64
2023/04/17 15:38:20;;;;;;;11.95;10.75;;;22.70;99.60;;;;;;5065664;28;20082;-66
2023/04/17 15:40:46;;;;;;;11.60;10.50;;;22.60;99.70;;;;;;5067622;28;20025;-65
2023/04/17 15:43:12;;;;;;;11.90;10.75;;;22.60;99.70;;;;;;5055633;28;20021;-63
2023/04/17 15:45:37;;;;;;;11.30;10.30;;;22.60;99.90;;;;;;5055778;28;20029;-64
2023/04/17 15:48:03;;;;;;;11.48;10.38;;;22.70;99.90;;;;;;5052054;28;20017;-64
2023/04/17 15:50:28;;;;;;;12.70;10.43;;;22.70;99.90;;;;;;5050437;28;20045;-64